sensor_id;sensor_type;location;lat;lon;timestamp;pressure;altitude;pressure_sealevel;temperature;humidity
35878;BME280;21982;49.804;24.072;2023-05-14T00:02:06;97819.06;;;12.90;41.49
35878;BME280;21982;49.804;24.072;2023-05-14T00:04:31;97764.59;;;12.58;41.49
35878;BME280;21982;49.804;24.072;2023-05-14T00:06:56;97870.13;;;13.21;41.46
35878;BME280;21982;49.804;24.072;2023-05-14T00:09:23;97788.19;;;12.67;41.79
35878;BME280;21982;49.804;24.072;2023-05-14T00:11:48;97880.75;;;13.21;41.45
35878;BME280;21982;49.804;24.072;2023-05-14T00:14:13;97834.56;;;12.86;41.80
35878;BME280;21982;49.804;24.072;2023-05-14T00:16:39;97883.66;;;13.05;41.81
35878;BME280;21982;49.804;24.072;2023-05-14T00:19:04;97877.56;;;13.11;42.03
35878;BME280;21982;49.804;24.072;2023-05-14T00:21:30;97787.19;;;12.47;41.71
35878;BME280;21982;49.804;24.072;2023-05-14T00:23:56;97828.69;;;12.69;42.20
35878;BME280;21982;49.804;24.072;2023-05-14T00:28:57;97683.81;;;11.73;42.11
35878;BME280;21982;49.804;24.072;2023-05-14T00:31:22;97862.75;;;12.81;42.22
35878;BME280;21982;49.804;24.072;2023-05-14T00:33:47;97817.00;;;12.49;42.14
35878;BME280;21982;49.804;24.072;2023-05-14T00:36:13;97883.22;;;12.87;42.43
35878;BME280;21982;49.804;24.072;2023-05-14T00:38:38;97853.16;;;12.65;42.20
35878;BME280;21982;49.804;24.072;2023-05-14T00:41:04;97864.88;;;12.70;42.38
35878;BME280;21982;49.804;24.072;2023-05-14T00:43:29;97833.34;;;12.46;42.51
35878;BME280;21982;49.804;24.072;2023-05-14T00:45:56;97836.81;;;12.47;42.28
35878;BME280;21982;49.804;24.072;2023-05-14T00:48:23;97860.94;;;12.66;42.38
35878;BME280;21982;49.804;24.072;2023-05-14T00:50:49;97877.22;;;12.78;42.37
35878;BME280;21982;49.804;24.072;2023-05-14T00:53:17;97883.56;;;12.77;42.59
35878;BME280;21982;49.804;24.072;2023-05-14T00:55:44;97838.56;;;12.39;42.69
35878;BME280;21982;49.804;24.072;2023-05-14T00:58:12;97888.25;;;12.75;42.06
35878;BME280;21982;49.804;24.072;2023-05-14T01:00:39;97810.03;;;12.27;42.22
35878;BME280;21982;49.804;24.072;2023-05-14T01:03:05;97889.25;;;12.74;42.41
35878;BME280;21982;49.804;24.072;2023-05-14T01:08:26;97860.97;;;12.52;42.05
35878;BME280;21982;49.804;24.072;2023-05-14T01:11:46;97881.47;;;12.72;42.21
35878;BME280;21982;49.804;24.072;2023-05-14T01:14:01;97889.16;;;12.67;42.28
35878;BME280;21982;49.804;24.072;2023-05-14T01:16:28;97887.88;;;12.63;42.52
35878;BME280;21982;49.804;24.072;2023-05-14T01:18:58;97843.81;;;12.33;42.35
35878;BME280;21982;49.804;24.072;2023-05-14T01:21:36;97889.53;;;12.64;42.28
35878;BME280;21982;49.804;24.072;2023-05-14T01:24:03;97851.78;;;12.33;42.52
35878;BME280;21982;49.804;24.072;2023-05-14T01:26:29;97836.66;;;12.19;42.49
35878;BME280;21982;49.804;24.072;2023-05-14T01:29:21;97828.06;;;12.17;42.37
35878;BME280;21982;49.804;24.072;2023-05-14T01:31:49;97828.44;;;12.14;42.69
35878;BME280;21982;49.804;24.072;2023-05-14T01:34:19;97823.94;;;12.14;42.77
35878;BME280;21982;49.804;24.072;2023-05-14T01:36:46;97808.50;;;12.03;42.79
35878;BME280;21982;49.804;24.072;2023-05-14T01:39:12;97773.50;;;11.78;42.87
35878;BME280;21982;49.804;24.072;2023-05-14T01:41:39;97848.75;;;12.21;42.97
35878;BME280;21982;49.804;24.072;2023-05-14T01:44:07;97846.56;;;12.25;42.61
35878;BME280;21982;49.804;24.072;2023-05-14T01:46:33;97797.34;;;11.93;42.91
35878;BME280;21982;49.804;24.072;2023-05-14T01:48:59;97862.66;;;12.23;42.98
35878;BME280;21982;49.804;24.072;2023-05-14T01:51:25;97890.50;;;12.42;43.05
35878;BME280;21982;49.804;24.072;2023-05-14T01:53:50;97859.91;;;12.17;43.07
35878;BME280;21982;49.804;24.072;2023-05-14T01:56:17;97829.47;;;11.98;43.28
35878;BME280;21982;49.804;24.072;2023-05-14T01:58:42;97887.94;;;12.34;43.30
35878;BME280;21982;49.804;24.072;2023-05-14T02:01:07;97876.31;;;12.20;43.43
35878;BME280;21982;49.804;24.072;2023-05-14T02:03:34;97881.63;;;12.20;43.73
35878;BME280;21982;49.804;24.072;2023-05-14T02:06:00;97849.50;;;12.00;43.71
35878;BME280;21982;49.804;24.072;2023-05-14T02:08:25;97823.50;;;11.81;43.80
35878;BME280;21982;49.804;24.072;2023-05-14T02:10:52;97882.44;;;12.21;43.69
35878;BME280;21982;49.804;24.072;2023-05-14T02:13:20;97835.03;;;11.88;44.09
35878;BME280;21982;49.804;24.072;2023-05-14T02:15:45;97873.78;;;12.12;44.00
35878;BME280;21982;49.804;24.072;2023-05-14T02:18:12;97844.28;;;11.92;43.99
35878;BME280;21982;49.804;24.072;2023-05-14T02:20:37;97880.28;;;12.10;43.93
35878;BME280;21982;49.804;24.072;2023-05-14T02:23:03;97857.84;;;11.97;43.95
35878;BME280;21982;49.804;24.072;2023-05-14T02:25:28;97878.81;;;12.07;44.27
35878;BME280;21982;49.804;24.072;2023-05-14T02:27:57;97878.16;;;12.05;43.93
35878;BME280;21982;49.804;24.072;2023-05-14T02:30:23;97860.22;;;11.92;44.58
35878;BME280;21982;49.804;24.072;2023-05-14T02:32:48;97833.56;;;11.71;44.38
35878;BME280;21982;49.804;24.072;2023-05-14T02:35:15;97829.53;;;11.75;44.38
35878;BME280;21982;49.804;24.072;2023-05-14T02:37:40;97844.38;;;11.84;44.48
35878;BME280;21982;49.804;24.072;2023-05-14T02:40:06;97811.03;;;11.67;44.64
35878;BME280;21982;49.804;24.072;2023-05-14T02:42:32;97884.66;;;12.02;44.48
35878;BME280;21982;49.804;24.072;2023-05-14T02:44:58;97878.72;;;12.00;44.70
35878;BME280;21982;49.804;24.072;2023-05-14T02:47:23;97877.69;;;12.01;44.94
35878;BME280;21982;49.804;24.072;2023-05-14T02:49:49;97861.22;;;11.91;44.87
35878;BME280;21982;49.804;24.072;2023-05-14T02:52:14;97877.97;;;12.06;44.92
35878;BME280;21982;49.804;24.072;2023-05-14T02:54:39;97758.00;;;11.37;45.05
35878;BME280;21982;49.804;24.072;2023-05-14T02:57:05;97798.16;;;11.64;45.04
35878;BME280;21982;49.804;24.072;2023-05-14T02:59:30;97879.44;;;12.09;45.07
35878;BME280;21982;49.804;24.072;2023-05-14T03:01:55;97868.00;;;12.08;45.03
35878;BME280;21982;49.804;24.072;2023-05-14T03:04:22;97783.13;;;11.56;45.14
35878;BME280;21982;49.804;24.072;2023-05-14T03:06:47;97864.16;;;11.96;45.49
35878;BME280;21982;49.804;24.072;2023-05-14T03:09:14;97801.63;;;11.64;45.33
35878;BME280;21982;49.804;24.072;2023-05-14T03:11:39;97836.59;;;11.83;45.48
35878;BME280;21982;49.804;24.072;2023-05-14T03:14:05;97849.03;;;11.82;45.43
35878;BME280;21982;49.804;24.072;2023-05-14T03:16:31;97833.91;;;11.68;45.62
35878;BME280;21982;49.804;24.072;2023-05-14T03:18:56;97870.47;;;11.95;46.01
35878;BME280;21982;49.804;24.072;2023-05-14T03:21:21;97860.28;;;11.84;45.91
35878;BME280;21982;49.804;24.072;2023-05-14T03:23:47;97856.06;;;11.75;45.87
35878;BME280;21982;49.804;24.072;2023-05-14T03:26:12;97875.50;;;11.90;45.79
35878;BME280;21982;49.804;24.072;2023-05-14T03:28:39;97857.00;;;11.82;46.19
35878;BME280;21982;49.804;24.072;2023-05-14T03:31:04;97825.69;;;11.63;45.71
35878;BME280;21982;49.804;24.072;2023-05-14T03:33:30;97808.84;;;11.56;45.76
35878;BME280;21982;49.804;24.072;2023-05-14T03:35:56;97806.47;;;11.61;45.78
35878;BME280;21982;49.804;24.072;2023-05-14T03:38:21;97873.31;;;12.08;45.81
35878;BME280;21982;49.804;24.072;2023-05-14T03:40:46;97861.06;;;12.07;45.39
35878;BME280;21982;49.804;24.072;2023-05-14T03:43:12;97858.56;;;12.06;45.34
35878;BME280;21982;49.804;24.072;2023-05-14T03:45:39;97840.25;;;11.96;45.43
35878;BME280;21982;49.804;24.072;2023-05-14T03:48:04;97879.50;;;12.16;45.48
35878;BME280;21982;49.804;24.072;2023-05-14T03:50:30;97877.69;;;12.16;45.70
35878;BME280;21982;49.804;24.072;2023-05-14T03:52:56;97879.31;;;12.17;45.43
35878;BME280;21982;49.804;24.072;2023-05-14T03:55:21;97809.69;;;11.71;45.70
35878;BME280;21982;49.804;24.072;2023-05-14T03:57:47;97881.63;;;12.20;45.96
35878;BME280;21982;49.804;24.072;2023-05-14T04:00:14;97878.06;;;12.28;45.61
35878;BME280;21982;49.804;24.072;2023-05-14T04:02:40;97794.72;;;11.78;45.69
35878;BME280;21982;49.804;24.072;2023-05-14T04:05:05;97861.19;;;12.21;45.73
35878;BME280;21982;49.804;24.072;2023-05-14T04:07:31;97850.31;;;12.16;46.03
35878;BME280;21982;49.804;24.072;2023-05-14T04:09:56;97861.94;;;12.29;45.32
35878;BME280;21982;49.804;24.072;2023-05-14T04:12:21;97879.50;;;12.45;45.59
35878;BME280;21982;49.804;24.072;2023-05-14T04:14:47;97805.94;;;12.10;45.26
35878;BME280;21982;49.804;24.072;2023-05-14T04:17:12;97822.94;;;12.30;45.61
35878;BME280;21982;49.804;24.072;2023-05-14T04:19:38;97818.63;;;12.29;45.59
35878;BME280;21982;49.804;24.072;2023-05-14T04:22:04;97797.47;;;12.21;45.34
35878;BME280;21982;49.804;24.072;2023-05-14T04:24:30;97800.03;;;12.29;45.14
35878;BME280;21982;49.804;24.072;2023-05-14T04:26:55;97874.25;;;12.88;45.26
35878;BME280;21982;49.804;24.072;2023-05-14T04:29:21;97851.97;;;12.89;45.11
35878;BME280;21982;49.804;24.072;2023-05-14T04:31:48;97783.75;;;12.53;45.04
35878;BME280;21982;49.804;24.072;2023-05-14T04:34:14;97827.94;;;12.97;44.77
35878;BME280;21982;49.804;24.072;2023-05-14T04:36:40;97864.59;;;13.23;44.58
35878;BME280;21982;49.804;24.072;2023-05-14T04:39:05;97823.75;;;13.09;44.48
35878;BME280;21982;49.804;24.072;2023-05-14T04:41:30;97867.06;;;13.46;44.71
35878;BME280;21982;49.804;24.072;2023-05-14T04:43:57;97882.59;;;13.70;44.22
35878;BME280;21982;49.804;24.072;2023-05-14T04:46:23;97848.38;;;13.67;44.03
35878;BME280;21982;49.804;24.072;2023-05-14T04:48:48;97748.16;;;13.18;43.93
35878;BME280;21982;49.804;24.072;2023-05-14T04:51:14;97838.69;;;13.87;43.97
35878;BME280;21982;49.804;24.072;2023-05-14T04:53:39;97570.22;;;12.26;43.76
35878;BME280;21982;49.804;24.072;2023-05-14T04:56:07;97868.97;;;14.49;43.89
35878;BME280;21982;49.804;24.072;2023-05-14T04:58:33;97866.97;;;14.70;43.65
35878;BME280;21982;49.804;24.072;2023-05-14T05:00:58;97842.84;;;14.85;42.89
35878;BME280;21982;49.804;24.072;2023-05-14T05:03:23;97814.50;;;14.91;42.83
35878;BME280;21982;49.804;24.072;2023-05-14T05:05:49;97866.72;;;15.66;42.04
35878;BME280;21982;49.804;24.072;2023-05-14T05:08:15;97798.75;;;15.62;41.87
35878;BME280;21982;49.804;24.072;2023-05-14T05:10:41;97862.00;;;16.52;40.85
35878;BME280;21982;49.804;24.072;2023-05-14T05:13:07;97862.22;;;16.95;40.26
35878;BME280;21982;49.804;24.072;2023-05-14T05:15:32;97864.38;;;17.43;39.73
35878;BME280;21982;49.804;24.072;2023-05-14T05:17:57;97754.72;;;17.05;38.87
35878;BME280;21982;49.804;24.072;2023-05-14T05:20:23;97861.88;;;18.16;38.29
35878;BME280;21982;49.804;24.072;2023-05-14T05:22:49;97864.69;;;18.58;38.11
35878;BME280;21982;49.804;24.072;2023-05-14T05:25:14;97860.97;;;19.07;37.27
35878;BME280;21982;49.804;24.072;2023-05-14T05:27:40;97828.06;;;19.12;36.92
35878;BME280;21982;49.804;24.072;2023-05-14T05:30:06;97831.97;;;19.27;36.54
35878;BME280;21982;49.804;24.072;2023-05-14T05:32:31;97822.53;;;19.48;36.09
35878;BME280;21982;49.804;24.072;2023-05-14T05:34:57;97778.31;;;19.51;35.58
35878;BME280;21982;49.804;24.072;2023-05-14T05:37:25;97842.88;;;20.37;35.49
35878;BME280;21982;49.804;24.072;2023-05-14T05:39:50;97798.47;;;20.63;34.86
35878;BME280;21982;49.804;24.072;2023-05-14T05:42:16;97859.19;;;21.61;34.39
35878;BME280;21982;49.804;24.072;2023-05-14T05:44:41;97799.59;;;21.96;33.34
35878;BME280;21982;49.804;24.072;2023-05-14T05:47:06;97853.19;;;22.92;32.63
35878;BME280;21982;49.804;24.072;2023-05-14T05:49:32;97841.63;;;23.50;31.93
35878;BME280;21982;49.804;24.072;2023-05-14T05:51:57;97863.72;;;24.11;31.36
35878;BME280;21982;49.804;24.072;2023-05-14T05:54:23;97846.78;;;24.26;30.59
35878;BME280;21982;49.804;24.072;2023-05-14T05:56:51;97867.75;;;24.51;30.22
35878;BME280;21982;49.804;24.072;2023-05-14T05:59:16;97870.91;;;24.32;30.33
35878;BME280;21982;49.804;24.072;2023-05-14T06:01:42;97816.75;;;23.85;30.67
35878;BME280;21982;49.804;24.072;2023-05-14T06:04:08;97872.66;;;24.64;30.11
35878;BME280;21982;49.804;24.072;2023-05-14T06:06:34;97879.13;;;25.15;29.71
35878;BME280;21982;49.804;24.072;2023-05-14T06:08:59;97764.34;;;24.64;29.55
35878;BME280;21982;49.804;24.072;2023-05-14T06:11:26;97847.72;;;25.90;28.67
35878;BME280;21982;49.804;24.072;2023-05-14T06:13:52;97865.03;;;26.30;28.38
35878;BME280;21982;49.804;24.072;2023-05-14T06:16:20;97868.97;;;26.73;27.89
35878;BME280;21982;49.804;24.072;2023-05-14T06:18:47;97849.47;;;27.15;27.32
35878;BME280;21982;49.804;24.072;2023-05-14T06:21:13;97884.50;;;28.00;26.83
35878;BME280;21982;49.804;24.072;2023-05-14T06:23:40;97886.22;;;28.20;26.06
35878;BME280;21982;49.804;24.072;2023-05-14T06:26:05;97852.91;;;28.04;25.85
35878;BME280;21982;49.804;24.072;2023-05-14T06:28:31;97853.94;;;28.37;25.70
35878;BME280;21982;49.804;24.072;2023-05-14T06:30:56;97863.34;;;28.45;25.82
35878;BME280;21982;49.804;24.072;2023-05-14T06:33:21;97869.44;;;27.79;25.79
35878;BME280;21982;49.804;24.072;2023-05-14T06:35:54;97829.00;;;27.67;25.78
35878;BME280;21982;49.804;24.072;2023-05-14T06:38:19;97833.22;;;27.44;25.98
35878;BME280;21982;49.804;24.072;2023-05-14T06:40:45;97780.09;;;26.79;26.29
35878;BME280;21982;49.804;24.072;2023-05-14T06:45:47;97747.41;;;27.33;25.87
35878;BME280;21982;49.804;24.072;2023-05-14T06:48:13;97830.97;;;28.43;24.70
35878;BME280;21982;49.804;24.072;2023-05-14T06:50:38;97852.06;;;28.03;24.83
35878;BME280;21982;49.804;24.072;2023-05-14T06:53:04;97858.91;;;27.72;25.16
35878;BME280;21982;49.804;24.072;2023-05-14T06:55:29;97839.25;;;27.75;25.21
35878;BME280;21982;49.804;24.072;2023-05-14T06:57:55;97863.78;;;28.04;24.86
35878;BME280;21982;49.804;24.072;2023-05-14T07:00:20;97852.13;;;28.27;24.82
35878;BME280;21982;49.804;24.072;2023-05-14T07:02:47;97794.19;;;28.22;24.34
35878;BME280;21982;49.804;24.072;2023-05-14T07:05:13;97801.03;;;28.14;23.97
35878;BME280;21982;49.804;24.072;2023-05-14T07:07:38;97847.25;;;27.95;24.43
35878;BME280;21982;49.804;24.072;2023-05-14T07:10:04;97838.41;;;27.41;24.87
35878;BME280;21982;49.804;24.072;2023-05-14T07:12:29;97832.88;;;27.61;24.90
35878;BME280;21982;49.804;24.072;2023-05-14T07:14:55;97790.06;;;27.38;24.48
35878;BME280;21982;49.804;24.072;2023-05-14T07:17:21;97796.41;;;27.62;23.83
35878;BME280;21982;49.804;24.072;2023-05-14T07:19:46;97750.63;;;27.69;23.32
35878;BME280;21982;49.804;24.072;2023-05-14T07:22:12;97781.22;;;28.09;23.18
35878;BME280;21982;49.804;24.072;2023-05-14T07:24:37;97831.72;;;28.73;22.88
35878;BME280;21982;49.804;24.072;2023-05-14T07:27:03;97826.91;;;29.07;22.94
35878;BME280;21982;49.804;24.072;2023-05-14T07:29:28;97818.47;;;28.85;22.84
35878;BME280;21982;49.804;24.072;2023-05-14T07:31:54;97832.25;;;29.12;22.34
35878;BME280;21982;49.804;24.072;2023-05-14T07:34:23;97828.88;;;29.39;22.68
35878;BME280;21982;49.804;24.072;2023-05-14T07:36:48;97825.78;;;29.46;22.36
35878;BME280;21982;49.804;24.072;2023-05-14T07:39:13;97787.38;;;29.23;22.50
35878;BME280;21982;49.804;24.072;2023-05-14T07:41:39;97827.31;;;29.52;22.65
35878;BME280;21982;49.804;24.072;2023-05-14T07:44:04;97822.16;;;29.31;22.29
35878;BME280;21982;49.804;24.072;2023-05-14T07:46:31;97753.44;;;28.54;22.74
35878;BME280;21982;49.804;24.072;2023-05-14T07:48:56;97794.50;;;28.63;23.02
35878;BME280;21982;49.804;24.072;2023-05-14T07:51:22;97807.09;;;28.78;22.86
35878;BME280;21982;49.804;24.072;2023-05-14T07:53:47;97765.44;;;28.96;22.46
35878;BME280;21982;49.804;24.072;2023-05-14T07:56:12;97748.44;;;28.80;22.56
35878;BME280;21982;49.804;24.072;2023-05-14T07:58:44;97771.19;;;29.46;21.84
35878;BME280;21982;49.804;24.072;2023-05-14T08:01:10;97710.41;;;29.26;21.08
35878;BME280;21982;49.804;24.072;2023-05-14T08:03:36;97814.19;;;29.54;20.92
35878;BME280;21982;49.804;24.072;2023-05-14T08:06:02;97803.88;;;28.76;21.03
35878;BME280;21982;49.804;24.072;2023-05-14T08:08:28;97661.41;;;27.66;21.03
35878;BME280;21982;49.804;24.072;2023-05-14T08:10:54;97768.41;;;27.85;21.43
35878;BME280;21982;49.804;24.072;2023-05-14T08:13:22;97804.03;;;27.60;21.41
35878;BME280;21982;49.804;24.072;2023-05-14T08:15:50;97725.91;;;27.02;21.84
35878;BME280;21982;49.804;24.072;2023-05-14T08:18:16;97694.16;;;26.88;21.57
35878;BME280;21982;49.804;24.072;2023-05-14T08:20:41;97790.28;;;27.41;21.47
35878;BME280;21982;49.804;24.072;2023-05-14T08:23:07;97773.59;;;27.53;21.29
35878;BME280;21982;49.804;24.072;2023-05-14T08:25:33;97652.56;;;27.26;21.13
35878;BME280;21982;49.804;24.072;2023-05-14T08:27:59;97729.91;;;28.21;21.01
35878;BME280;21982;49.804;24.072;2023-05-14T08:30:26;97705.00;;;28.32;21.15
35878;BME280;21982;49.804;24.072;2023-05-14T08:32:51;97790.84;;;29.29;20.93
35878;BME280;21982;49.804;24.072;2023-05-14T08:35:17;97706.00;;;29.12;20.84
35878;BME280;21982;49.804;24.072;2023-05-14T08:37:43;97557.28;;;27.79;20.30
35878;BME280;21982;49.804;24.072;2023-05-14T08:40:09;97788.53;;;29.17;21.08
35878;BME280;21982;49.804;24.072;2023-05-14T08:42:37;97744.25;;;28.50;21.19
35878;BME280;21982;49.804;24.072;2023-05-14T08:45:05;97785.72;;;29.09;20.83
35878;BME280;21982;49.804;24.072;2023-05-14T08:47:36;97704.66;;;27.91;21.16
35878;BME280;21982;49.804;24.072;2023-05-14T08:50:03;97724.69;;;28.24;21.27
35878;BME280;21982;49.804;24.072;2023-05-14T08:52:30;97779.00;;;29.01;20.95
35878;BME280;21982;49.804;24.072;2023-05-14T08:54:58;97711.50;;;28.93;20.40
35878;BME280;21982;49.804;24.072;2023-05-14T08:57:24;97771.88;;;29.19;20.60
35878;BME280;21982;49.804;24.072;2023-05-14T08:59:54;97799.34;;;28.66;20.30
35878;BME280;21982;49.804;24.072;2023-05-14T09:02:22;97782.66;;;28.73;20.33
35878;BME280;21982;49.804;24.072;2023-05-14T09:04:55;97691.97;;;28.06;20.96
35878;BME280;21982;49.804;24.072;2023-05-14T09:07:21;97754.94;;;28.65;20.53
35878;BME280;21982;49.804;24.072;2023-05-14T09:09:48;97671.50;;;28.32;21.01
35878;BME280;21982;49.804;24.072;2023-05-14T09:12:13;97734.59;;;28.77;20.72
35878;BME280;21982;49.804;24.072;2023-05-14T09:14:39;97778.94;;;29.39;20.74
35878;BME280;21982;49.804;24.072;2023-05-14T09:17:08;97660.53;;;29.40;20.32
35878;BME280;21982;49.804;24.072;2023-05-14T09:19:33;97749.13;;;29.61;20.21
35878;BME280;21982;49.804;24.072;2023-05-14T09:21:59;97756.84;;;29.21;20.35
35878;BME280;21982;49.804;24.072;2023-05-14T09:24:25;97785.63;;;28.95;20.55
35878;BME280;21982;49.804;24.072;2023-05-14T09:26:54;97763.53;;;28.96;20.89
35878;BME280;21982;49.804;24.072;2023-05-14T09:29:20;97744.72;;;28.76;20.91
35878;BME280;21982;49.804;24.072;2023-05-14T09:31:49;97757.97;;;28.83;20.22
35878;BME280;21982;49.804;24.072;2023-05-14T09:34:26;97734.59;;;28.77;20.24
35878;BME280;21982;49.804;24.072;2023-05-14T09:36:56;97754.19;;;28.79;20.97
35878;BME280;21982;49.804;24.072;2023-05-14T09:39:39;97753.78;;;29.09;21.12
35878;BME280;21982;49.804;24.072;2023-05-14T09:42:05;97701.16;;;29.09;20.37
35878;BME280;21982;49.804;24.072;2023-05-14T09:44:30;97493.97;;;27.92;20.56
35878;BME280;21982;49.804;24.072;2023-05-14T09:46:58;97747.31;;;29.05;20.20
35878;BME280;21982;49.804;24.072;2023-05-14T09:49:24;97742.16;;;28.85;20.25
35878;BME280;21982;49.804;24.072;2023-05-14T09:51:50;97715.84;;;28.75;20.25
35878;BME280;21982;49.804;24.072;2023-05-14T09:54:16;97740.44;;;29.08;20.77
35878;BME280;21982;49.804;24.072;2023-05-14T09:56:42;97744.53;;;29.24;20.11
35878;BME280;21982;49.804;24.072;2023-05-14T09:59:08;97736.19;;;29.01;20.41
35878;BME280;21982;49.804;24.072;2023-05-14T10:01:34;97726.00;;;29.40;20.33
35878;BME280;21982;49.804;24.072;2023-05-14T10:04:06;97738.50;;;29.27;19.50
35878;BME280;21982;49.804;24.072;2023-05-14T10:06:38;97680.34;;;28.19;20.40
35878;BME280;21982;49.804;24.072;2023-05-14T10:09:12;97722.41;;;28.08;20.61
35878;BME280;21982;49.804;24.072;2023-05-14T10:11:59;97686.44;;;27.68;21.14
35878;BME280;21982;49.804;24.072;2023-05-14T10:14:44;97669.44;;;28.24;21.03
35878;BME280;21982;49.804;24.072;2023-05-14T10:17:13;97664.78;;;28.62;20.42
35878;BME280;21982;49.804;24.072;2023-05-14T10:19:46;97703.38;;;29.07;20.54
35878;BME280;21982;49.804;24.072;2023-05-14T10:22:14;97717.91;;;29.34;20.57
35878;BME280;21982;49.804;24.072;2023-05-14T10:27:19;97702.13;;;30.46;19.66
35878;BME280;21982;49.804;24.072;2023-05-14T10:29:50;97700.53;;;31.04;19.38
35878;BME280;21982;49.804;24.072;2023-05-14T10:32:19;97633.19;;;30.49;19.19
35878;BME280;21982;49.804;24.072;2023-05-14T10:34:46;97705.16;;;30.45;19.48
35878;BME280;21982;49.804;24.072;2023-05-14T10:37:17;97698.94;;;30.66;19.58
35878;BME280;21982;49.804;24.072;2023-05-14T10:39:47;97684.78;;;30.64;19.36
35878;BME280;21982;49.804;24.072;2023-05-14T10:42:25;97646.16;;;30.80;19.34
35878;BME280;21982;49.804;24.072;2023-05-14T10:45:06;97683.47;;;30.84;19.06
35878;BME280;21982;49.804;24.072;2023-05-14T10:47:44;97671.31;;;30.90;19.32
35878;BME280;21982;49.804;24.072;2023-05-14T10:50:13;97679.78;;;30.80;19.34
35878;BME280;21982;49.804;24.072;2023-05-14T10:52:41;97619.03;;;30.47;19.14
35878;BME280;21982;49.804;24.072;2023-05-14T10:55:07;97663.56;;;30.48;18.68
35878;BME280;21982;49.804;24.072;2023-05-14T10:57:37;97519.88;;;29.61;19.43
35878;BME280;21982;49.804;24.072;2023-05-14T11:00:06;97687.00;;;30.62;19.17
35878;BME280;21982;49.804;24.072;2023-05-14T11:02:38;97670.19;;;30.69;19.05
35878;BME280;21982;49.804;24.072;2023-05-14T11:05:14;97636.38;;;30.51;18.89
35878;BME280;21982;49.804;24.072;2023-05-14T11:10:25;97593.63;;;30.11;19.35
35878;BME280;21982;49.804;24.072;2023-05-14T11:12:56;97659.56;;;30.54;19.08
35878;BME280;21982;49.804;24.072;2023-05-14T11:15:23;97652.66;;;30.70;18.76
35878;BME280;21982;49.804;24.072;2023-05-14T11:17:50;97626.00;;;30.76;19.11
35878;BME280;21982;49.804;24.072;2023-05-14T11:20:18;97620.78;;;30.88;18.44
35878;BME280;21982;49.804;24.072;2023-05-14T11:22:45;97635.88;;;30.85;18.79
35878;BME280;21982;49.804;24.072;2023-05-14T11:25:12;97638.56;;;30.77;19.38
35878;BME280;21982;49.804;24.072;2023-05-14T11:27:40;97440.00;;;29.69;18.81
35878;BME280;21982;49.804;24.072;2023-05-14T11:30:17;97622.59;;;30.70;18.82
35878;BME280;21982;49.804;24.072;2023-05-14T11:32:44;97527.28;;;30.32;19.26
35878;BME280;21982;49.804;24.072;2023-05-14T11:35:10;97630.56;;;31.33;18.75
35878;BME280;21982;49.804;24.072;2023-05-14T11:37:35;97558.88;;;31.23;18.74
35878;BME280;21982;49.804;24.072;2023-05-14T11:40:01;97627.16;;;32.16;18.26
35878;BME280;21982;49.804;24.072;2023-05-14T11:42:29;97607.56;;;31.74;18.22
35878;BME280;21982;49.804;24.072;2023-05-14T11:44:55;97607.28;;;30.47;18.51
35878;BME280;21982;49.804;24.072;2023-05-14T11:47:21;97552.72;;;30.19;18.90
35878;BME280;21982;49.804;24.072;2023-05-14T11:49:47;97600.06;;;30.95;18.93
35878;BME280;21982;49.804;24.072;2023-05-14T11:52:14;97504.66;;;31.16;18.76
35878;BME280;21982;49.804;24.072;2023-05-14T11:54:45;97444.03;;;31.40;18.22
35878;BME280;21982;49.804;24.072;2023-05-14T11:57:17;97465.31;;;31.52;17.87
35878;BME280;21982;49.804;24.072;2023-05-14T11:59:44;97359.56;;;30.90;17.94
35878;BME280;21982;49.804;24.072;2023-05-14T12:02:17;97609.53;;;31.91;18.06
35878;BME280;21982;49.804;24.072;2023-05-14T12:04:48;97563.34;;;30.88;18.24
35878;BME280;21982;49.804;24.072;2023-05-14T12:07:15;97578.34;;;31.13;18.67
35878;BME280;21982;49.804;24.072;2023-05-14T12:09:43;97574.84;;;30.98;18.69
35878;BME280;21982;49.804;24.072;2023-05-14T12:12:17;97543.28;;;29.89;18.81
35878;BME280;21982;49.804;24.072;2023-05-14T12:14:43;97530.06;;;29.69;19.16
35878;BME280;21982;49.804;24.072;2023-05-14T12:17:14;97576.13;;;30.12;19.39
35878;BME280;21982;49.804;24.072;2023-05-14T12:19:40;97571.78;;;29.15;19.38
35878;BME280;21982;49.804;24.072;2023-05-14T12:22:07;97562.06;;;28.95;19.78
35878;BME280;21982;49.804;24.072;2023-05-14T12:24:32;97492.72;;;28.03;19.93
35878;BME280;21982;49.804;24.072;2023-05-14T12:27:00;97487.13;;;27.76;19.76
35878;BME280;21982;49.804;24.072;2023-05-14T12:29:25;97436.56;;;26.66;20.76
35878;BME280;21982;49.804;24.072;2023-05-14T12:31:51;97512.16;;;27.54;20.67
35878;BME280;21982;49.804;24.072;2023-05-14T12:34:16;97497.41;;;28.17;20.31
35878;BME280;21982;49.804;24.072;2023-05-14T12:36:42;97506.88;;;28.71;19.65
35878;BME280;21982;49.804;24.072;2023-05-14T12:39:08;97512.03;;;28.72;19.87
35878;BME280;21982;49.804;24.072;2023-05-14T12:41:34;97480.06;;;28.45;19.43
35878;BME280;21982;49.804;24.072;2023-05-14T12:44:00;97516.75;;;28.66;19.35
35878;BME280;21982;49.804;24.072;2023-05-14T12:46:26;97466.81;;;28.25;19.62
35878;BME280;21982;49.804;24.072;2023-05-14T12:48:53;97501.91;;;27.89;19.89
35878;BME280;21982;49.804;24.072;2023-05-14T12:51:18;97490.53;;;27.44;19.95
35878;BME280;21982;49.804;24.072;2023-05-14T12:53:44;97491.41;;;26.92;20.24
35878;BME280;21982;49.804;24.072;2023-05-14T12:56:11;97509.44;;;26.83;20.75
35878;BME280;21982;49.804;24.072;2023-05-14T12:58:37;97415.31;;;25.81;21.01
35878;BME280;21982;49.804;24.072;2023-05-14T13:01:04;97507.38;;;26.01;21.52
35878;BME280;21982;49.804;24.072;2023-05-14T13:03:30;97516.69;;;25.95;21.84